sensor_id;sensor_type;location;lat;lon;timestamp;pressure;altitude;pressure_sealevel;temperature;humidity
77723;BME280;67811;42.656;23.394;2023-04-25T00:00:06;94347.47;;;10.77;59.17
77723;BME280;67811;42.656;23.394;2023-04-25T00:02:33;94343.16;;;10.76;58.93
77723;BME280;67811;42.656;23.394;2023-04-25T00:04:58;94332.38;;;10.78;59.26
77723;BME280;67811;42.656;23.394;2023-04-25T00:07:25;94330.53;;;10.78;59.15
77723;BME280;67811;42.656;23.394;2023-04-25T00:09:50;94315.47;;;10.79;59.05
77723;BME280;67811;42.656;23.394;2023-04-25T00:12:16;94319.53;;;10.75;59.25
77723;BME280;67811;42.656;23.394;2023-04-25T00:14:41;94308.13;;;10.68;59.68
77723;BME280;67811;42.656;23.394;2023-04-25T00:17:06;94308.31;;;10.60;60.40
77723;BME280;67811;42.656;23.394;2023-04-25T00:19:31;94299.16;;;10.55;60.39
77723;BME280;67811;42.656;23.394;2023-04-25T00:21:57;94299.34;;;10.54;60.92
77723;BME280;67811;42.656;23.394;2023-04-25T00:24:22;94303.22;;;10.51;61.06
77723;BME280;67811;42.656;23.394;2023-04-25T00:26:47;94296.69;;;10.47;61.26
77723;BME280;67811;42.656;23.394;2023-04-25T00:29:13;94280.00;;;10.40;61.45
77723;BME280;67811;42.656;23.394;2023-04-25T00:31:38;94271.63;;;10.37;62.39
77723;BME280;67811;42.656;23.394;2023-04-25T00:34:03;94273.25;;;10.31;63.41
77723;BME280;67811;42.656;23.394;2023-04-25T00:36:29;94271.22;;;10.26;64.28
77723;BME280;67811;42.656;23.394;2023-04-25T00:38:54;94266.91;;;10.19;64.82
77723;BME280;67811;42.656;23.394;2023-04-25T00:41:19;94268.13;;;10.16;64.83
77723;BME280;67811;42.656;23.394;2023-04-25T00:43:45;94260.38;;;10.15;65.55
77723;BME280;67811;42.656;23.394;2023-04-25T00:46:12;94262.66;;;10.11;65.70
77723;BME280;67811;42.656;23.394;2023-04-25T00:48:37;94254.06;;;10.09;65.81
77723;BME280;67811;42.656;23.394;2023-04-25T00:51:02;94255.31;;;10.07;65.95
77723;BME280;67811;42.656;23.394;2023-04-25T00:53:28;94249.59;;;10.03;66.39
77723;BME280;67811;42.656;23.394;2023-04-25T00:55:55;94251.63;;;10.01;65.92
77723;BME280;67811;42.656;23.394;2023-04-25T00:58:21;94253.47;;;10.00;66.30
77723;BME280;67811;42.656;23.394;2023-04-25T01:00:48;94241.22;;;9.99;65.95
77723;BME280;67811;42.656;23.394;2023-04-25T01:03:14;94246.53;;;9.99;65.94
77723;BME280;67811;42.656;23.394;2023-04-25T01:05:41;94240.41;;;9.99;65.74
77723;BME280;67811;42.656;23.394;2023-04-25T01:08:07;94246.53;;;9.99;65.00
77723;BME280;67811;42.656;23.394;2023-04-25T01:10:32;94249.78;;;10.01;65.30
77723;BME280;67811;42.656;23.394;2023-04-25T01:12:57;94240.03;;;10.02;64.57
77723;BME280;67811;42.656;23.394;2023-04-25T01:15:23;94229.00;;;10.05;64.44
77723;BME280;67811;42.656;23.394;2023-04-25T01:17:48;94219.88;;;10.08;64.16
77723;BME280;67811;42.656;23.394;2023-04-25T01:20:14;94227.38;;;10.11;63.86
77723;BME280;67811;42.656;23.394;2023-04-25T01:22:39;94229.84;;;10.12;63.73
77723;BME280;67811;42.656;23.394;2023-04-25T01:25:05;94232.09;;;10.15;63.62
77723;BME280;67811;42.656;23.394;2023-04-25T01:27:32;94220.28;;;10.18;63.04
77723;BME280;67811;42.656;23.394;2023-04-25T01:29:57;94223.75;;;10.18;62.73
77723;BME280;67811;42.656;23.394;2023-04-25T01:32:23;94217.44;;;10.19;62.66
77723;BME280;67811;42.656;23.394;2023-04-25T01:34:49;94216.63;;;10.19;62.84
77723;BME280;67811;42.656;23.394;2023-04-25T01:37:14;94215.59;;;10.20;62.42
77723;BME280;67811;42.656;23.394;2023-04-25T01:39:41;94214.78;;;10.19;62.35
77723;BME280;67811;42.656;23.394;2023-04-25T01:42:06;94228.63;;;10.21;62.26
77723;BME280;67811;42.656;23.394;2023-04-25T01:44:32;94228.63;;;10.21;62.12
77723;BME280;67811;42.656;23.394;2023-04-25T01:46:57;94222.50;;;10.21;61.96
77723;BME280;67811;42.656;23.394;2023-04-25T01:49:23;94218.25;;;10.20;61.51
77723;BME280;67811;42.656;23.394;2023-04-25T01:51:48;94228.03;;;10.19;61.76
77723;BME280;67811;42.656;23.394;2023-04-25T01:54:13;94223.97;;;10.17;61.67
77723;BME280;67811;42.656;23.394;2023-04-25T01:56:39;94225.38;;;10.13;61.60
77723;BME280;67811;42.656;23.394;2023-04-25T01:59:05;94226.41;;;10.12;61.55
77723;BME280;67811;42.656;23.394;2023-04-25T02:01:30;94233.91;;;10.08;61.17
77723;BME280;67811;42.656;23.394;2023-04-25T02:03:56;94236.97;;;10.05;61.40
77723;BME280;67811;42.656;23.394;2023-04-25T02:06:21;94231.88;;;10.03;61.29
77723;BME280;67811;42.656;23.394;2023-04-25T02:08:47;94228.00;;;9.99;61.17
77723;BME280;67811;42.656;23.394;2023-04-25T02:11:12;94228.00;;;9.99;61.65
77723;BME280;67811;42.656;23.394;2023-04-25T02:13:37;94224.53;;;9.99;61.16
77723;BME280;67811;42.656;23.394;2023-04-25T02:16:03;94235.34;;;9.97;61.41
77723;BME280;67811;42.656;23.394;2023-04-25T02:18:28;94222.09;;;9.97;61.51
77723;BME280;67811;42.656;23.394;2023-04-25T02:20:54;94210.69;;;10.03;61.32
77723;BME280;67811;42.656;23.394;2023-04-25T02:23:19;94199.72;;;10.13;60.99
77723;BME280;67811;42.656;23.394;2023-04-25T02:25:45;94202.81;;;10.23;60.42
77723;BME280;67811;42.656;23.394;2023-04-25T02:28:10;94195.88;;;10.36;60.41
77723;BME280;67811;42.656;23.394;2023-04-25T02:30:36;94197.28;;;10.45;59.93
77723;BME280;67811;42.656;23.394;2023-04-25T02:33:01;94190.75;;;10.47;59.88
77723;BME280;67811;42.656;23.394;2023-04-25T02:35:26;94188.75;;;10.49;59.46
77723;BME280;67811;42.656;23.394;2023-04-25T02:37:52;94190.97;;;10.52;59.65
77723;BME280;67811;42.656;23.394;2023-04-25T02:40:17;94188.31;;;10.52;59.24
77723;BME280;67811;42.656;23.394;2023-04-25T02:42:42;94194.03;;;10.49;59.29
77723;BME280;67811;42.656;23.394;2023-04-25T02:45:08;94187.91;;;10.49;59.58
77723;BME280;67811;42.656;23.394;2023-04-25T02:47:33;94186.28;;;10.48;59.57
77723;BME280;67811;42.656;23.394;2023-04-25T02:49:59;94188.75;;;10.49;59.25
77723;BME280;67811;42.656;23.394;2023-04-25T02:52:24;94191.16;;;10.51;59.31
77723;BME280;67811;42.656;23.394;2023-04-25T02:54:49;94177.31;;;10.49;59.14
77723;BME280;67811;42.656;23.394;2023-04-25T02:57:15;94180.78;;;10.49;59.22
77723;BME280;67811;42.656;23.394;2023-04-25T02:59:40;94164.47;;;10.52;59.19
77723;BME280;67811;42.656;23.394;2023-04-25T03:02:05;94166.72;;;10.55;59.08
77723;BME280;67811;42.656;23.394;2023-04-25T03:04:31;94163.03;;;10.57;58.86
77723;BME280;67811;42.656;23.394;2023-04-25T03:06:56;94165.91;;;10.55;59.24
77723;BME280;67811;42.656;23.394;2023-04-25T03:09:21;94178.53;;;10.53;58.93
77723;BME280;67811;42.656;23.394;2023-04-25T03:11:46;94166.53;;;10.50;58.67
77723;BME280;67811;42.656;23.394;2023-04-25T03:14:12;94159.59;;;10.49;58.99
77723;BME280;67811;42.656;23.394;2023-04-25T03:16:38;94161.41;;;10.49;59.10
77723;BME280;67811;42.656;23.394;2023-04-25T03:19:04;94157.13;;;10.48;58.86
77723;BME280;67811;42.656;23.394;2023-04-25T03:21:31;94162.25;;;10.49;58.79
77723;BME280;67811;42.656;23.394;2023-04-25T03:23:56;94166.31;;;10.52;58.94
77723;BME280;67811;42.656;23.394;2023-04-25T03:26:22;94183.00;;;10.52;58.86
77723;BME280;67811;42.656;23.394;2023-04-25T03:28:47;94182.19;;;10.52;58.73
77723;BME280;67811;42.656;23.394;2023-04-25T03:31:12;94162.25;;;10.49;58.62
77723;BME280;67811;42.656;23.394;2023-04-25T03:33:38;94151.25;;;10.46;58.62
77723;BME280;67811;42.656;23.394;2023-04-25T03:36:03;94162.88;;;10.45;58.94
77723;BME280;67811;42.656;23.394;2023-04-25T03:38:29;94172.84;;;10.43;58.73
77723;BME280;67811;42.656;23.394;2023-04-25T03:40:54;94163.69;;;10.39;58.94
77723;BME280;67811;42.656;23.394;2023-04-25T03:43:19;94165.94;;;10.35;58.82
77723;BME280;67811;42.656;23.394;2023-04-25T03:45:45;94173.47;;;10.32;58.76
77723;BME280;67811;42.656;23.394;2023-04-25T03:48:11;94166.97;;;10.27;59.17
77723;BME280;67811;42.656;23.394;2023-04-25T03:50:36;94166.34;;;10.25;59.71
77723;BME280;67811;42.656;23.394;2023-04-25T03:53:01;94170.22;;;10.29;59.63
77723;BME280;67811;42.656;23.394;2023-04-25T03:55:27;94157.16;;;10.41;59.72
77723;BME280;67811;42.656;23.394;2023-04-25T03:57:52;94168.47;;;10.81;59.82
77723;BME280;67811;42.656;23.394;2023-04-25T04:00:17;94161.69;;;11.44;58.27
77723;BME280;67811;42.656;23.394;2023-04-25T04:02:43;94147.19;;;12.09;56.83
77723;BME280;67811;42.656;23.394;2023-04-25T04:05:08;94150.38;;;12.61;55.62
77723;BME280;67811;42.656;23.394;2023-04-25T04:07:33;94147.75;;;12.98;54.83
77723;BME280;67811;42.656;23.394;2023-04-25T04:09:59;94159.88;;;13.31;54.04
77723;BME280;67811;42.656;23.394;2023-04-25T04:12:24;94165.66;;;13.58;53.65
77723;BME280;67811;42.656;23.394;2023-04-25T04:14:50;94171.72;;;14.07;53.11
77723;BME280;67811;42.656;23.394;2023-04-25T04:17:15;94170.63;;;14.61;52.09
77723;BME280;67811;42.656;23.394;2023-04-25T04:19:41;94172.50;;;14.61;51.64
77723;BME280;67811;42.656;23.394;2023-04-25T04:22:06;94161.22;;;14.23;52.31
77723;BME280;67811;42.656;23.394;2023-04-25T04:24:31;94170.81;;;13.71;53.37
77723;BME280;67811;42.656;23.394;2023-04-25T04:26:57;94175.69;;;13.26;54.62
77723;BME280;67811;42.656;23.394;2023-04-25T04:29:22;94176.19;;;12.98;55.35
77723;BME280;67811;42.656;23.394;2023-04-25T04:31:49;94175.16;;;12.80;55.94
77723;BME280;67811;42.656;23.394;2023-04-25T04:34:14;94169.16;;;12.66;56.39
77723;BME280;67811;42.656;23.394;2023-04-25T04:36:39;94166.25;;;12.50;56.89
77723;BME280;67811;42.656;23.394;2023-04-25T04:39:05;94168.88;;;12.31;57.67
77723;BME280;67811;42.656;23.394;2023-04-25T04:41:31;94163.72;;;12.11;58.14
77723;BME280;67811;42.656;23.394;2023-04-25T04:43:56;94163.66;;;11.93;59.07
77723;BME280;67811;42.656;23.394;2023-04-25T04:46:21;94164.97;;;11.77;59.76
77723;BME280;67811;42.656;23.394;2023-04-25T04:48:47;94166.03;;;11.70;60.01
77723;BME280;67811;42.656;23.394;2023-04-25T04:51:12;94157.75;;;11.59;60.46
77723;BME280;67811;42.656;23.394;2023-04-25T04:53:37;94157.38;;;11.49;60.92
77723;BME280;67811;42.656;23.394;2023-04-25T04:56:03;94169.03;;;11.42;61.49
77723;BME280;67811;42.656;23.394;2023-04-25T04:58:28;94174.97;;;11.37;61.76
77723;BME280;67811;42.656;23.394;2023-04-25T05:00:53;94180.13;;;11.32;61.70
77723;BME280;67811;42.656;23.394;2023-04-25T05:03:19;94181.56;;;11.28;61.81
77723;BME280;67811;42.656;23.394;2023-04-25T05:05:44;94188.91;;;11.26;61.79
77723;BME280;67811;42.656;23.394;2023-04-25T05:08:09;94192.19;;;11.28;61.39
77723;BME280;67811;42.656;23.394;2023-04-25T05:10:35;94187.47;;;11.30;61.48
77723;BME280;67811;42.656;23.394;2023-04-25T05:13:00;94184.41;;;11.33;61.01
77723;BME280;67811;42.656;23.394;2023-04-25T05:15:25;94185.44;;;11.32;60.67
77723;BME280;67811;42.656;23.394;2023-04-25T05:17:50;94191.31;;;11.34;60.51
77723;BME280;67811;42.656;23.394;2023-04-25T05:20:16;94205.19;;;11.36;60.33
77723;BME280;67811;42.656;23.394;2023-04-25T05:22:41;94205.41;;;11.34;60.43
77723;BME280;67811;42.656;23.394;2023-04-25T05:25:07;94203.38;;;11.30;60.50
77723;BME280;67811;42.656;23.394;2023-04-25T05:27:33;94212.59;;;11.27;60.23
77723;BME280;67811;42.656;23.394;2023-04-25T05:29:58;94204.00;;;11.25;60.34
77723;BME280;67811;42.656;23.394;2023-04-25T05:32:24;94200.16;;;11.21;60.14
77723;BME280;67811;42.656;23.394;2023-04-25T05:34:49;94190.19;;;11.17;60.05
77723;BME280;67811;42.656;23.394;2023-04-25T05:37:14;94189.56;;;11.21;60.14
77723;BME280;67811;42.656;23.394;2023-04-25T05:39:39;94193.03;;;11.22;59.96
77723;BME280;67811;42.656;23.394;2023-04-25T05:42:05;94205.03;;;11.24;59.74
77723;BME280;67811;42.656;23.394;2023-04-25T05:44:30;94199.94;;;11.23;59.75
77723;BME280;67811;42.656;23.394;2023-04-25T05:46:55;94202.59;;;11.23;59.65
77723;BME280;67811;42.656;23.394;2023-04-25T05:49:21;94206.28;;;11.22;59.94
77723;BME280;67811;42.656;23.394;2023-04-25T05:51:46;94205.22;;;11.29;59.50
77723;BME280;67811;42.656;23.394;2023-04-25T05:54:11;94201.34;;;11.32;59.79
77723;BME280;67811;42.656;23.394;2023-04-25T05:56:36;94204.78;;;11.39;59.28
77723;BME280;67811;42.656;23.394;2023-04-25T05:59:02;94208.00;;;11.41;59.69
77723;BME280;67811;42.656;23.394;2023-04-25T06:01:27;94204.34;;;11.42;59.72
77723;BME280;67811;42.656;23.394;2023-04-25T06:03:52;94201.88;;;11.47;59.81
77723;BME280;67811;42.656;23.394;2023-04-25T06:06:18;94210.81;;;11.53;59.49
77723;BME280;67811;42.656;23.394;2023-04-25T06:08:43;94202.66;;;11.54;59.63
77723;BME280;67811;42.656;23.394;2023-04-25T06:11:09;94193.91;;;11.54;59.95
77723;BME280;67811;42.656;23.394;2023-04-25T06:13:34;94197.94;;;11.56;59.86
77723;BME280;67811;42.656;23.394;2023-04-25T06:16:00;94199.53;;;11.64;59.90
77723;BME280;67811;42.656;23.394;2023-04-25T06:18:25;94191.16;;;11.67;60.24
77723;BME280;67811;42.656;23.394;2023-04-25T06:20:50;94193.53;;;11.75;60.18
77723;BME280;67811;42.656;23.394;2023-04-25T06:23:16;94199.69;;;11.82;59.98
77723;BME280;67811;42.656;23.394;2023-04-25T06:25:41;94206.34;;;11.92;60.02
77723;BME280;67811;42.656;23.394;2023-04-25T06:28:06;94209.56;;;12.00;59.76
77723;BME280;67811;42.656;23.394;2023-04-25T06:30:32;94204.38;;;12.12;59.30
77723;BME280;67811;42.656;23.394;2023-04-25T06:32:57;94210.81;;;12.23;58.86
77723;BME280;67811;42.656;23.394;2023-04-25T06:35:22;94198.13;;;12.25;58.86
77723;BME280;67811;42.656;23.394;2023-04-25T06:37:48;94203.78;;;12.35;58.90
77723;BME280;67811;42.656;23.394;2023-04-25T06:40:13;94201.19;;;12.53;58.65
77723;BME280;67811;42.656;23.394;2023-04-25T06:42:38;94205.47;;;12.73;58.49
77723;BME280;67811;42.656;23.394;2023-04-25T06:45:04;94208.91;;;12.98;58.30
77723;BME280;67811;42.656;23.394;2023-04-25T06:47:29;94213.44;;;13.34;57.54
77723;BME280;67811;42.656;23.394;2023-04-25T06:49:55;94210.34;;;13.67;57.02
77723;BME280;67811;42.656;23.394;2023-04-25T06:52:20;94209.69;;;14.02;56.47
77723;BME280;67811;42.656;23.394;2023-04-25T06:54:46;94211.97;;;14.29;55.81
77723;BME280;67811;42.656;23.394;2023-04-25T06:57:11;94205.25;;;14.38;55.69
77723;BME280;67811;42.656;23.394;2023-04-25T06:59:36;94215.88;;;14.56;55.49
77723;BME280;67811;42.656;23.394;2023-04-25T07:02:02;94211.34;;;14.68;55.47
77723;BME280;67811;42.656;23.394;2023-04-25T07:04:27;94210.41;;;14.74;55.25
77723;BME280;67811;42.656;23.394;2023-04-25T07:06:52;94201.59;;;14.74;55.28
77723;BME280;67811;42.656;23.394;2023-04-25T07:09:18;94206.13;;;14.73;55.36
77723;BME280;67811;42.656;23.394;2023-04-25T07:11:43;94207.28;;;14.77;55.53
77723;BME280;67811;42.656;23.394;2023-04-25T07:14:08;94206.38;;;14.84;55.49
77723;BME280;67811;42.656;23.394;2023-04-25T07:16:34;94197.88;;;14.87;55.29
77723;BME280;67811;42.656;23.394;2023-04-25T07:18:59;94204.28;;;14.86;55.31
77723;BME280;67811;42.656;23.394;2023-04-25T07:21:24;94208.31;;;14.88;55.36
77723;BME280;67811;42.656;23.394;2023-04-25T07:23:50;94206.47;;;14.89;55.45
77723;BME280;67811;42.656;23.394;2023-04-25T07:26:15;94200.56;;;14.87;55.41
77723;BME280;67811;42.656;23.394;2023-04-25T07:28:40;94203.91;;;14.82;55.56
77723;BME280;67811;42.656;23.394;2023-04-25T07:31:06;94209.38;;;14.75;55.54
77723;BME280;67811;42.656;23.394;2023-04-25T07:33:31;94204.97;;;14.69;55.52
77723;BME280;67811;42.656;23.394;2023-04-25T07:35:56;94205.22;;;14.68;55.92
77723;BME280;67811;42.656;23.394;2023-04-25T07:38:22;94200.19;;;14.71;55.85
77723;BME280;67811;42.656;23.394;2023-04-25T07:40:48;94200.44;;;14.82;55.68
77723;BME280;67811;42.656;23.394;2023-04-25T07:43:14;94197.06;;;14.86;55.71
77723;BME280;67811;42.656;23.394;2023-04-25T07:45:39;94194.50;;;15.03;55.35
77723;BME280;67811;42.656;23.394;2023-04-25T07:48:04;94193.44;;;15.16;55.45
77723;BME280;67811;42.656;23.394;2023-04-25T07:50:30;94195.53;;;15.14;55.24
77723;BME280;67811;42.656;23.394;2023-04-25T07:52:55;94186.72;;;15.13;54.96
77723;BME280;67811;42.656;23.394;2023-04-25T07:55:20;94186.47;;;15.15;55.22
77723;BME280;67811;42.656;23.394;2023-04-25T07:57:45;94182.44;;;15.12;55.09
77723;BME280;67811;42.656;23.394;2023-04-25T08:00:11;94187.41;;;15.20;55.31
77723;BME280;67811;42.656;23.394;2023-04-25T08:02:37;94178.56;;;15.32;55.14
77723;BME280;67811;42.656;23.394;2023-04-25T08:05:02;94178.06;;;15.46;54.99
77723;BME280;67811;42.656;23.394;2023-04-25T08:07:28;94173.84;;;15.62;54.80
77723;BME280;67811;42.656;23.394;2023-04-25T08:09:54;94178.69;;;15.77;54.52
77723;BME280;67811;42.656;23.394;2023-04-25T08:12:19;94176.53;;;15.91;54.37
77723;BME280;67811;42.656;23.394;2023-04-25T08:14:45;94175.16;;;15.88;54.18
77723;BME280;67811;42.656;23.394;2023-04-25T08:17:10;94181.59;;;15.75;54.34
77723;BME280;67811;42.656;23.394;2023-04-25T08:19:35;94175.59;;;15.68;54.50
77723;BME280;67811;42.656;23.394;2023-04-25T08:22:01;94173.69;;;15.97;54.55
77723;BME280;67811;42.656;23.394;2023-04-25T08:24:26;94180.72;;;16.49;53.68
77723;BME280;67811;42.656;23.394;2023-04-25T08:26:51;94168.75;;;17.07;52.78
77723;BME280;67811;42.656;23.394;2023-04-25T08:29:17;94170.25;;;17.63;51.63
77723;BME280;67811;42.656;23.394;2023-04-25T08:31:42;94167.34;;;18.14;50.58
77723;BME280;67811;42.656;23.394;2023-04-25T08:34:07;94153.66;;;18.42;50.00
77723;BME280;67811;42.656;23.394;2023-04-25T08:36:33;94155.03;;;18.50;49.91
77723;BME280;67811;42.656;23.394;2023-04-25T08:38:58;94156.91;;;18.50;49.96
77723;BME280;67811;42.656;23.394;2023-04-25T08:41:23;94156.75;;;18.29;50.23
77723;BME280;67811;42.656;23.394;2023-04-25T08:43:49;94153.31;;;18.07;50.88
77723;BME280;67811;42.656;23.394;2023-04-25T08:46:17;94153.91;;;18.09;51.08
77723;BME280;67811;42.656;23.394;2023-04-25T08:48:45;94158.56;;;18.19;50.90
77723;BME280;67811;42.656;23.394;2023-04-25T08:51:17;94171.13;;;18.50;50.97
77723;BME280;67811;42.656;23.394;2023-04-25T08:53:49;94179.72;;;18.84;50.23
77723;BME280;67811;42.656;23.394;2023-04-25T08:56:16;94160.00;;;19.06;49.98
77723;BME280;67811;42.656;23.394;2023-04-25T08:58:42;94159.81;;;19.12;50.30
77723;BME280;67811;42.656;23.394;2023-04-25T09:01:07;94163.34;;;19.28;49.97
77723;BME280;67811;42.656;23.394;2023-04-25T09:03:33;94164.06;;;19.61;49.47
77723;BME280;67811;42.656;23.394;2023-04-25T09:05:59;94157.22;;;20.00;48.97
77723;BME280;67811;42.656;23.394;2023-04-25T09:08:24;94151.28;;;20.09;48.65
77723;BME280;67811;42.656;23.394;2023-04-25T09:10:50;94140.56;;;20.19;48.83
77723;BME280;67811;42.656;23.394;2023-04-25T09:13:24;94136.28;;;20.33;48.63
77723;BME280;67811;42.656;23.394;2023-04-25T09:15:52;94140.06;;;20.52;48.74
77723;BME280;67811;42.656;23.394;2023-04-25T09:18:24;94136.78;;;20.91;48.19
77723;BME280;67811;42.656;23.394;2023-04-25T09:20:49;94136.47;;;21.13;47.97
77723;BME280;67811;42.656;23.394;2023-04-25T09:23:15;94127.59;;;21.08;47.99
77723;BME280;67811;42.656;23.394;2023-04-25T09:25:40;94124.63;;;21.04;47.86
77723;BME280;67811;42.656;23.394;2023-04-25T09:28:06;94124.94;;;20.82;48.41
77723;BME280;67811;42.656;23.394;2023-04-25T09:30:36;94124.72;;;20.53;48.00
77723;BME280;67811;42.656;23.394;2023-04-25T09:33:06;94119.28;;;20.07;48.96
77723;BME280;67811;42.656;23.394;2023-04-25T09:35:43;94127.84;;;19.73;49.55
77723;BME280;67811;42.656;23.394;2023-04-25T09:38:13;94125.84;;;19.48;50.18
77723;BME280;67811;42.656;23.394;2023-04-25T09:40:42;94124.09;;;19.22;50.48
77723;BME280;67811;42.656;23.394;2023-04-25T09:43:19;94130.44;;;19.01;51.03
77723;BME280;67811;42.656;23.394;2023-04-25T09:45:44;94130.63;;;18.84;51.46
77723;BME280;67811;42.656;23.394;2023-04-25T09:48:09;94127.31;;;18.72;51.51
77723;BME280;67811;42.656;23.394;2023-04-25T09:50:35;94127.53;;;18.65;51.55
77723;BME280;67811;42.656;23.394;2023-04-25T09:53:04;94123.69;;;18.56;51.72
77723;BME280;67811;42.656;23.394;2023-04-25T09:55:31;94124.59;;;18.34;52.22
77723;BME280;67811;42.656;23.394;2023-04-25T09:58:01;94123.44;;;18.20;52.38
77723;BME280;67811;42.656;23.394;2023-04-25T10:00:28;94135.63;;;18.06;52.09
77723;BME280;67811;42.656;23.394;2023-04-25T10:02:55;94134.00;;;17.78;52.55
77723;BME280;67811;42.656;23.394;2023-04-25T10:05:22;94129.97;;;17.53;52.88
77723;BME280;67811;42.656;23.394;2023-04-25T10:07:49;94135.47;;;17.42;52.89
77723;BME280;67811;42.656;23.394;2023-04-25T10:10:14;94132.22;;;17.39;53.06
77723;BME280;67811;42.656;23.394;2023-04-25T10:12:40;94142.63;;;17.36;53.17
77723;BME280;67811;42.656;23.394;2023-04-25T10:15:06;94128.69;;;17.34;52.96
77723;BME280;67811;42.656;23.394;2023-04-25T10:17:33;94126.38;;;17.43;52.99
77723;BME280;67811;42.656;23.394;2023-04-25T10:20:02;94120.06;;;17.54;52.88
77723;BME280;67811;42.656;23.394;2023-04-25T10:22:34;94114.25;;;17.62;52.48
77723;BME280;67811;42.656;23.394;2023-04-25T10:25:00;94125.78;;;17.62;52.50
77723;BME280;67811;42.656;23.394;2023-04-25T10:27:30;94141.19;;;17.72;52.38
77723;BME280;67811;42.656;23.394;2023-04-25T10:30:08;94146.13;;;17.80;52.19
77723;BME280;67811;42.656;23.394;2023-04-25T10:32:33;94136.47;;;17.84;52.10
77723;BME280;67811;42.656;23.394;2023-04-25T10:35:17;94130.06;;;17.85;51.85
77723;BME280;67811;42.656;23.394;2023-04-25T10:40:30;94119.75;;;17.99;51.93
77723;BME280;67811;42.656;23.394;2023-04-25T10:42:55;94122.41;;;18.26;51.61
77723;BME280;67811;42.656;23.394;2023-04-25T10:45:21;94116.31;;;18.68;51.06
77723;BME280;67811;42.656;23.394;2023-04-25T10:47:46;94114.69;;;19.14;50.30
77723;BME280;67811;42.656;23.394;2023-04-25T10:50:14;94114.88;;;19.60;49.35
77723;BME280;67811;42.656;23.394;2023-04-25T10:52:40;94124.63;;;19.92;48.71
77723;BME280;67811;42.656;23.394;2023-04-25T10:55:05;94136.50;;;19.96;48.66
77723;BME280;67811;42.656;23.394;2023-04-25T10:57:39;94123.28;;;19.79;49.03
77723;BME280;67811;42.656;23.394;2023-04-25T11:00:23;94123.16;;;19.54;49.25
77723;BME280;67811;42.656;23.394;2023-04-25T11:02:53;94129.28;;;19.39;49.69
77723;BME280;67811;42.656;23.394;2023-04-25T11:05:22;94128.44;;;19.23;50.04
77723;BME280;67811;42.656;23.394;2023-04-25T11:10:13;94114.66;;;19.09;50.40
77723;BME280;67811;42.656;23.394;2023-04-25T11:12:39;94117.63;;;19.13;50.50
77723;BME280;67811;42.656;23.394;2023-04-25T11:15:06;94107.50;;;19.30;50.23
77723;BME280;67811;42.656;23.394;2023-04-25T11:17:32;94110.25;;;19.56;50.27
77723;BME280;67811;42.656;23.394;2023-04-25T11:19:57;94109.28;;;19.82;49.30
77723;BME280;67811;42.656;23.394;2023-04-25T11:22:23;94116.03;;;20.05;49.14
77723;BME280;67811;42.656;23.394;2023-04-25T11:24:48;94107.47;;;20.23;48.83
77723;BME280;67811;42.656;23.394;2023-04-25T11:27:14;94099.94;;;20.31;48.25
77723;BME280;67811;42.656;23.394;2023-04-25T11:29:39;94102.38;;;20.22;48.29
77723;BME280;67811;42.656;23.394;2023-04-25T11:32:05;94101.53;;;20.01;48.40
77723;BME280;67811;42.656;23.394;2023-04-25T11:34:31;94107.41;;;19.78;48.74
77723;BME280;67811;42.656;23.394;2023-04-25T11:36:57;94103.34;;;19.65;48.95
77723;BME280;67811;42.656;23.394;2023-04-25T11:39:26;94101.13;;;19.52;49.19
77723;BME280;67811;42.656;23.394;2023-04-25T11:41:52;94104.28;;;19.38;49.40
77723;BME280;67811;42.656;23.394;2023-04-25T11:44:19;94100.97;;;19.16;49.60
77723;BME280;67811;42.656;23.394;2023-04-25T11:46:45;94095.91;;;18.72;50.22
77723;BME280;67811;42.656;23.394;2023-04-25T11:49:11;94111.97;;;18.30;50.90
77723;BME280;67811;42.656;23.394;2023-04-25T11:51:44;94121.94;;;18.02;51.43
77723;BME280;67811;42.656;23.394;2023-04-25T11:54:10;94116.91;;;17.84;51.81
77723;BME280;67811;42.656;23.394;2023-04-25T11:56:36;94130.78;;;17.76;51.90
77723;BME280;67811;42.656;23.394;2023-04-25T11:59:04;94133.47;;;17.54;52.15
77723;BME280;67811;42.656;23.394;2023-04-25T12:01:34;94126.75;;;17.29;52.22
77723;BME280;67811;42.656;23.394;2023-04-25T12:04:17;94120.75;;;17.00;52.48
77723;BME280;67811;42.656;23.394;2023-04-25T12:06:43;94121.53;;;16.79;52.75
77723;BME280;67811;42.656;23.394;2023-04-25T12:09:11;94114.91;;;16.48;52.84
77723;BME280;67811;42.656;23.394;2023-04-25T12:11:53;94104.31;;;16.19;52.97
77723;BME280;67811;42.656;23.394;2023-04-25T12:16:48;94107.97;;;15.96;53.39
77723;BME280;67811;42.656;23.394;2023-04-25T12:19:15;94096.56;;;16.01;53.34
77723;BME280;67811;42.656;23.394;2023-04-25T12:21:40;94097.34;;;16.01;53.20
77723;BME280;67811;42.656;23.394;2023-04-25T12:27:00;94096.72;;;15.94;52.85
77723;BME280;67811;42.656;23.394;2023-04-25T12:29:27;94078.00;;;15.77;52.50
77723;BME280;67811;42.656;23.394;2023-04-25T12:31:54;94070.66;;;15.56;52.70
77723;BME280;67811;42.656;23.394;2023-04-25T12:34:20;94079.44;;;15.40;52.81
77723;BME280;67811;42.656;23.394;2023-04-25T12:36:46;94085.63;;;15.28;53.08
77723;BME280;67811;42.656;23.394;2023-04-25T12:39:18;94090.63;;;15.25;53.02
77723;BME280;67811;42.656;23.394;2023-04-25T12:41:44;94092.09;;;15.33;52.74
77723;BME280;67811;42.656;23.394;2023-04-25T12:44:10;94110.84;;;15.49;52.55
77723;BME280;67811;42.656;23.394;2023-04-25T12:46:36;94119.97;;;15.65;52.22
77723;BME280;67811;42.656;23.394;2023-04-25T12:49:01;94129.22;;;15.74;52.04
77723;BME280;67811;42.656;23.394;2023-04-25T12:51:26;94138.69;;;15.82;52.18
77723;BME280;67811;42.656;23.394;2023-04-25T12:53:52;94146.88;;;15.92;51.81